Frankfort, KY (40601)

12:32 AM EST on March 07, 2015 (GMT -0500)
The Cottages of Frankfort | Change Station
CLOSE
Current Station
Personal Weather Station
Location: Frankfort, KY
Elevation: 755 ft
Nearby Weather Stations

Elev 755 ft 38.16 °N, 84.92 °W | Updated 14 minutes ago

Clear
Clear
16.9 °F
Feels Like 17 °F
N
0.0
Wind Variable Wind from NW

Today
High -- | Low -- °F
--% Chance of Precip.
Yesterday
High -- | Low -- °F
Precip. -- in
7:03 AM 6:38 PM
Full, 98% visible
Pressure 30.42 in
Visibility 10.0 miles
Clouds Clear
Windchill 17 °F
Dew Point 13 °F
Humidity 83%
Rainfall 0.00 in
Snow Depth Not available.
UV 0 out of 12
Pollen 1.50 out of 12
Air Quality Not available.
Flu Activity Not available.
METAR KFFT 070453Z AUTO 21006KT 10SM CLR M07/M12 A3038 RMK AO2 SLP301 T10671122 410281233

More Conditions Fewer Conditions

Pressure 30.42 in
Visibility 10.0 miles
Clouds Clear
Windchill 17 °F
Dew Point 13 °F
Humidity 83%
Rainfall 0.00 in
Snow Depth Not available.
UV 0 out of 12
Pollen 1.50 out of 12
Air Quality Not available.
Flu Activity Not available.
METAR KFFT 070453Z AUTO 21006KT 10SM CLR M07/M12 A3038 RMK AO2 SLP301 T10671122 410281233

More Conditions Fewer Conditions

10-Day Weather Forecast

Almanac

Astronomy

Mar. 07, 2015 Rise Set
Actual Time
Civil Twilight
Nautical Twilight
Astronomical Twilight
Moon
Length of Visible Light
Length of Day
Tomorrow will be .
, % of the Moon is Illuminated

Today's Extremes

State Highs State Lows

Community

WunderPhotos

Upload Photos

1,803,551 photos uploaded!

WunderBlogs® & News

Nearby

Air Quality

  Air Quality AQ Index Pollutant
Not available.

Snow Depth

Station Depth Elevation

Earthquake Activity

City Distance Mag. Time & Date
Minimum magnitude displayed is 2.5.

Coastal Water Temperatures

Place Temperature

Nearby Weather Stations